Time;durP1;ratioP1;P1;durP2;ratioP2;P2;SDS_P1;SDS_P2;PMS_P1;PMS_P2;Temp;Humidity;BMP_temperature;BMP_pressure;BME280_temperature;BME280_humidity;BME280_pressure;Samples;Min_cycle;Max_cycle;Signal;HPM_P1;HPM_P2
2022/03/19 07:44:15;;;;;;;9.45;5.13;;;;;;;;;;10598391;28;20032;-84
2022/03/19 08:01:07;;;;;;;4.70;2.10;;;;;;;;;;10585312;28;20028;-80
2022/03/19 08:06:08;;;;;;;5.85;2.85;;;;;;;;;;10566319;28;20015;-81
2022/03/19 08:11:09;;;;;;;9.45;5.20;;;;;;;;;;10575751;28;20036;-79
2022/03/19 08:16:12;;;;;;;9.45;4.85;;;;;;;;;;10554775;28;20028;-81
2022/03/19 08:21:12;;;;;;;8.00;4.63;;;;;;;;;;10553891;28;20043;-81
2022/03/19 08:26:13;;;;;;;;;;;;;;;;;;10538943;28;20028;-81
2022/03/19 08:31:14;;;;;;;8.05;4.32;;;;;;;;;;10538409;28;19908;-80
2022/03/19 08:36:15;;;;;;;;;;;;;;;;;;10546582;28;20055;-79
2022/03/19 08:41:16;;;;;;;6.95;3.97;;;;;;;;;;10543356;28;19911;-80
2022/03/19 08:46:17;;;;;;;9.52;5.00;;;;;;;;;;10540621;28;20047;-79
2022/03/19 08:56:38;;;;;;;18.15;12.82;;;;;;;;;;10575866;28;19903;-82
2022/03/19 09:01:40;;;;;;;6.70;4.03;;;;;;;;;;10578771;28;20078;-83
2022/03/19 09:06:42;;;;;;;9.32;4.05;;;;;;;;;;10557465;28;20092;-83
2022/03/19 09:11:43;;;;;;;6.15;3.65;;;;;;;;;;10553185;28;20066;-83
2022/03/19 09:16:44;;;;;;;;;;;;;;;;;;10571388;28;20461;-82
2022/03/19 09:21:45;;;;;;;6.13;3.47;;;;;;;;;;10550908;28;20010;-83
2022/03/19 09:26:46;;;;;;;10.57;3.90;;;;;;;;;;10565729;28;20032;-80
2022/03/19 09:31:47;;;;;;;6.68;3.42;;;;;;;;;;10543972;28;20115;-80
2022/03/19 09:36:48;;;;;;;;;;;;;;;;;;10542500;28;20028;-81
2022/03/19 09:41:50;;;;;;;5.72;2.60;;;;;;;;;;10539149;28;19911;-82
2022/03/19 09:46:51;;;;;;;7.80;2.67;;;;;;;;;;10567333;28;20088;-81
2022/03/19 09:51:54;;;;;;;5.88;2.30;;;;;;;;;;10535977;28;20086;-80
2022/03/19 09:56:55;;;;;;;6.85;2.60;;;;;;;;;;10538369;28;20115;-82
2022/03/19 10:01:56;;;;;;;5.80;2.35;;;;;;;;;;10545341;28;20031;-81
2022/03/19 10:12:25;;;;;;;7.05;2.13;;;;;;;;;;10542134;28;20032;-78
2022/03/19 10:17:30;;;;;;;3.60;2.22;;;;;;;;;;10541348;28;20136;-78
2022/03/19 10:22:31;;;;;;;5.32;2.40;;;;;;;;;;10550031;28;20027;-79
2022/03/19 10:27:34;;;;;;;7.03;2.33;;;;;;;;;;10524527;28;20028;-82
2022/03/19 10:32:35;;;;;;;4.80;1.95;;;;;;;;;;10542328;28;20035;-80
2022/03/19 10:37:41;;;;;;;4.38;2.13;;;;;;;;;;10523654;28;20073;-78
2022/03/19 10:42:42;;;;;;;5.55;2.50;;;;;;;;;;10523769;28;20044;-78
2022/03/19 10:47:44;;;;;;;8.18;1.92;;;;;;;;;;10523703;28;20087;-78
2022/03/19 10:52:49;;;;;;;5.63;1.90;;;;;;;;;;10541038;28;20027;-78
2022/03/19 10:57:50;;;;;;;3.85;1.95;;;;;;;;;;10526554;28;20025;-76
2022/03/19 11:03:00;;;;;;;3.42;1.80;;;;;;;;;;10521696;28;20024;-78
2022/03/19 11:08:02;;;;;;;5.45;2.00;;;;;;;;;;10521282;28;20040;-79
2022/03/19 11:13:03;;;;;;;5.50;2.08;;;;;;;;;;10548243;28;20063;-79
2022/03/19 11:18:12;;;;;;;4.90;1.90;;;;;;;;;;10529611;28;20480;-78
2022/03/19 11:23:18;;;;;;;5.90;1.70;;;;;;;;;;10520666;28;20110;-77
2022/03/19 11:28:34;;;;;;;3.75;1.77;;;;;;;;;;10516060;23;20038;-81
2022/03/19 11:34:02;;;;;;;3.15;1.15;;;;;;;;;;10440261;28;20085;-82
2022/03/19 11:39:18;;;;;;;2.95;1.52;;;;;;;;;;10421369;28;20017;-82
2022/03/19 11:44:23;;;;;;;2.80;1.17;;;;;;;;;;10408616;28;20106;-81
2022/03/19 11:49:43;;;;;;;4.43;1.70;;;;;;;;;;10417453;28;20022;-82
2022/03/19 11:55:04;;;;;;;5.67;1.53;;;;;;;;;;10423111;28;20104;-81
2022/03/19 12:00:12;;;;;;;6.15;1.83;;;;;;;;;;10425442;28;20029;-82
2022/03/19 12:05:33;;;;;;;4.20;1.50;;;;;;;;;;10444732;28;20025;-81
2022/03/19 12:10:40;;;;;;;3.90;1.80;;;;;;;;;;10426925;28;20025;-81
2022/03/19 12:15:50;;;;;;;3.95;1.80;;;;;;;;;;10444593;28;20028;-81
2022/03/19 12:20:52;;;;;;;10.57;6.28;;;;;;;;;;10440871;28;20037;-80
2022/03/19 12:26:04;;;;;;;2.75;1.50;;;;;;;;;;10421690;28;20056;-82
2022/03/19 12:31:12;;;;;;;5.82;1.70;;;;;;;;;;10422957;28;20049;-81
2022/03/19 12:36:19;;;;;;;5.07;1.42;;;;;;;;;;10423371;28;20026;-81
2022/03/19 12:41:24;;;;;;;5.28;1.75;;;;;;;;;;10412549;28;20025;-82
2022/03/19 12:46:26;;;;;;;3.95;1.30;;;;;;;;;;10414685;28;20048;-82
2022/03/19 12:51:27;;;;;;;3.25;1.27;;;;;;;;;;10431472;28;20030;-80
2022/03/19 12:56:29;;;;;;;3.05;1.30;;;;;;;;;;10437651;28;20030;-84
2022/03/19 13:02:09;;;;;;;4.25;1.42;;;;;;;;;;10413412;28;20397;-86
2022/03/19 13:19:10;;;;;;;6.13;1.40;;;;;;;;;;10288324;29;20023;-84
2022/03/19 13:30:28;;;;;;;2.60;1.10;;;;;;;;;;10168879;29;20056;-84
2022/03/19 13:36:25;;;;;;;5.47;2.85;;;;;;;;;;10169947;29;20029;-84
2022/03/19 14:27:37;;;;;;;3.53;1.50;;;;;;;;;;10358283;28;20164;-85
2022/03/19 14:55:39;;;;;;;3.97;2.03;;;;;;;;;;10189019;29;20039;-85
2022/03/19 15:11:59;;;;;;;4.40;1.67;;;;;;;;;;10449656;28;20029;-86
2022/03/19 15:17:03;;;;;;;5.80;1.70;;;;;;;;;;10420608;28;20018;-84
2022/03/19 16:47:45;;;;;;;3.80;1.30;;;;;;;;;;10462194;28;20041;-84
2022/03/19 16:58:32;;;;;;;3.60;1.30;;;;;;;;;;10446350;28;20033;-85
2022/03/19 17:03:48;;;;;;;3.55;1.38;;;;;;;;;;10431344;28;20053;-85
2022/03/19 17:20:48;;;;;;;3.50;1.35;;;;;;;;;;10450120;28;20060;-85
